Custom Search

Airport METAR Reports

 

YMAV - Avalon Airport, Australia
Distance from station: 0 0km
Updated: 14/12/2018 11:00
Overcast
Overcast
 Wind from N
Wind: N 15 km/h
Temperature: 19°C
Dew Point: 17°C
Humidity: 88%
Barometer: 1004 hPa
Clouds: Overcast
Visibility: 10 km
Cloud details: Mostly cloudy 1402 m
Overcast 1737 m
2018/12/14 00:00 YMAV 140000Z AUTO 35008KT 9999 // BKN046 OVC057 19/17 Q1004
YMML - Melbourne Intl A, Australia
Distance from station: NE 50km
Updated: 14/12/2018 11:00
Light rain, Mostly cloudy
Light rain, Mostly cloudy
 Wind from S
Wind: S 11 km/h
Temperature: 15°C
Dew Point: 15°C
Humidity: 100%
Barometer: 1003 hPa
Summary: Light rain
Clouds: Mostly cloudy
Visibility: 10 km
Cloud details: Few Clouds 183 m
Mostly cloudy 2896 m
Mostly cloudy 3658 m
2018/12/14 00:00 YMML 140000Z 17006KT 130V190 9999 -RA FEW006 BKN095 BKN120 15/15 Q1003
YMEN - Melbourne/Essend, Australia
Distance from station: NE 51km
Updated: 14/12/2018 11:00
Rain, Overcast
Rain, Overcast
 Wind from SSW
Wind: SSW 13 km/h
Temperature: 16°C
Dew Point: 16°C
Humidity: 100%
Barometer: 1003 hPa
Summary: Rain
Clouds: Overcast
Visibility: 10 km
Cloud details: Overcast 2743 m
2018/12/14 00:00 YMEN 140000Z AUTO 21007KT 9999 RA OVC090 16/16 Q1003
 
YWGT - Wangaratta Arp, Australia
Distance from station: NE 241km
Updated: 14/12/2018 11:00
Overcast
Overcast
 Wind from NE
Wind: NE 4 km/h
Temperature: 18°C
Dew Point: 13°C
Humidity: 73%
Barometer: 1003 hPa
Clouds: Overcast
Visibility: 10 km
Cloud details: Partly cloudy 549 m
Overcast 762 m
2018/12/14 00:00 YWGT 140000Z AUTO 05002KT 9999 // SCT018 OVC025 18/13 Q1003
YMAY - Albury Airport, Australia
Distance from station: NE 308km
Updated: 14/12/2018 11:00
Overcast
Overcast
 Wind from N
Wind: N 6 km/h
Temperature: 19°C
Dew Point: 12°C
Humidity: 64%
Barometer: 1003 hPa
Clouds: Overcast
Visibility: 10 km
Cloud details: Overcast 1585 m
2018/12/14 00:00 YMAY 140000Z AUTO 36003KT 9999 // OVC052 19/12 Q1003
YMTG - Mount Gambier, Australia
Distance from station: W 326km
Updated: 14/12/2018 11:00
Drizzle, Overcast
Drizzle, Overcast
 Wind from SSE
Wind: SSE 33 km/h
Temperature: 16°C
Dew Point: 15°C
Humidity: 94%
Barometer: 1006 hPa
Summary: Drizzle
Clouds: Overcast
Visibility: 3 km
Cloud details: Overcast 152 m
2018/12/14 00:00 YMTG 140000Z AUTO 16018KT 2800 DZ OVC005 16/15 Q1006
 
YNAR - Narrandera, Australia
Distance from station: NNE 413km
Updated: 14/12/2018 11:00

 Wind from N
Wind: N 17 km/h
Temperature: 19°C
Dew Point: 9°C
Humidity: 52%
Barometer: 1003 hPa
2018/12/14 00:00 YNAR 140000Z AUTO 01009KT //// // ////// 19/09 Q1003
YSWG - Wagga Wagga(Cv/M, Australia
Distance from station: NE 418km
Updated: 14/12/2018 11:00
Few Clouds
Few Clouds
 Wind from NW
Wind: NW 7 km/h
Temperature: 20°C
Dew Point: 13°C
Humidity: 64%
Barometer: 1003 hPa
Clouds: Few Clouds
Visibility: 10 km
Cloud details: Few Clouds 762 m
2018/12/14 00:00 YSWG 140000Z 31004KT 250V340 9999 FEW025 20/13 Q1003
YCOM - Cooma Snowy Mtns, Australia
Distance from station: ENE 441km
Updated: 14/12/2018 11:00
Overcast
Overcast
 Wind from NE
Wind: NE 26 km/h
Temperature: 19°C
Dew Point: 15°C
Humidity: 78%
Barometer: 1005 hPa
Clouds: Overcast
Visibility: 10 km
Cloud details: Mostly cloudy 610 m
Overcast 823 m
2018/12/14 00:00 YCOM 140000Z AUTO 05014KT 9999 // BKN020 OVC027 19/15 Q1005
 
YGTH - Griffith Arpt, Australia
Distance from station: NNE 444km
Updated: 14/12/2018 11:00
Clear
Clear
 Wind from N
Wind: N 20 km/h
Temperature: 19°C
Dew Point: 9°C
Humidity: 52%
Barometer: 1002 hPa
Clouds: Clear
Visibility: 10 km
2018/12/14 00:00 YGTH 140000Z AUTO 01011KT 9999 // NCD 19/09 Q1002
YMLT - Launceston Airpo, Australia
Distance from station: SSE 451km
Updated: 14/12/2018 11:00
Clear
Clear
 Wind from SE
Wind: SE 33 km/h
Temperature: 20°C
Dew Point: 9°C
Humidity: 49%
Barometer: 1012 hPa
Clouds: Clear
Visibility: 10 km
2018/12/14 00:00 YMLT 140000Z AUTO 14018KT 9999 // NCD 20/09 Q1012
YMIA - Mildura Arpt, Australia
Distance from station: NNW 474km
Updated: 14/12/2018 11:18
Overcast
Overcast
 Wind from SSE
Wind: SSE 31 km/h
Temperature: 14°C
Dew Point: 13°C
Humidity: 94%
Barometer: 997 hPa
Clouds: Overcast
Visibility: 5 km
Cloud details: Mostly cloudy 427 m
Overcast 610 m
2018/12/14 00:18 YMIA 140018Z AUTO 16017KT 5000 // BKN014 OVC020 14/13 Q0997
 
YMER - Merimbula Arpt, Australia
Distance from station: ENE 494km
Updated: 14/12/2018 11:00
Overcast
Overcast
 Wind from ESE
Wind: ESE 13 km/h
Temperature: 22°C
Dew Point: 18°C
Humidity: 78%
Barometer: 1004 hPa
Clouds: Overcast
Visibility: 10 km
Cloud details: Overcast 1006 m
2018/12/14 00:00 YMER 140000Z AUTO 12007KT 9999 // OVC033 22/18 Q1004
YSCB - Canberra (civ/Mi, Australia
Distance from station: NE 518km
Updated: 14/12/2018 11:00
Nearby showers, Mostly cloudy
Nearby showers, Mostly cloudy
 Wind from E
Wind: E 22 km/h
Temperature: 20°C
Dew Point: 17°C
Humidity: 83%
Barometer: 1004 hPa
Summary: Nearby Showers
Clouds: Mostly cloudy
Visibility: 10 km
Cloud details: Few Clouds 305 m
Mostly cloudy 457 m
Mostly cloudy 1219 m
2018/12/14 00:00 YSCB 140000Z 08012KT 9999 VCSH FEW010 BKN015 BKN040 20/17 Q1004
YMHB - Hobart/Tasmania, Australia
Distance from station: SSE 590km
Updated: 14/12/2018 11:00
Mostly cloudy
Mostly cloudy
 Wind from NE
Wind: NE 20 km/h
Temperature: 20°C
Dew Point: 8°C
Humidity: 46%
Barometer: 1015 hPa
Clouds: Mostly cloudy
Visibility: 10 km
Cloud details: Few Clouds 1158 m
Mostly cloudy 1280 m
2018/12/14 00:00 YMHB 140000Z 05011KT 9999 FEW038 BKN042 20/08 Q1015